Time;durP1;ratioP1;P1;durP2;ratioP2;P2;SDS_P1;SDS_P2;PMS_P1;PMS_P2;Temp;Humidity;BMP_temperature;BMP_pressure;BME280_temperature;BME280_humidity;BME280_pressure;Samples;Min_cycle;Max_cycle;Signal;HPM_P1;HPM_P2
2024/01/06 21:18:11;;;;;;;21.33;19.73;;;9.20;30.80;;;;;;5042603;23;20630;-80
2024/01/06 21:20:58;;;;;;;22.13;20.43;;;9.20;31.10;;;;;;5002096;28;20924;-81
2024/01/06 21:23:25;;;;;;;21.53;19.90;;;9.20;30.80;;;;;;5006114;28;20438;-80
2024/01/06 21:25:52;;;;;;;21.37;19.57;;;9.20;31.10;;;;;;4996923;28;20428;-80
2024/01/06 21:28:19;;;;;;;23.00;21.10;;;9.20;30.90;;;;;;4996477;28;20452;-79
2024/01/06 21:30:46;;;;;;;21.87;20.07;;;9.30;31.20;;;;;;4995873;28;20443;-80
2024/01/06 21:33:17;;;;;;;22.80;21.10;;;9.20;30.80;;;;;;4980484;28;20447;-80
2024/01/06 21:35:43;;;;;;;20.50;18.90;;;9.20;31.10;;;;;;4983942;28;20440;-80
2024/01/06 21:38:12;;;;;;;20.53;18.90;;;9.20;31.30;;;;;;5018367;28;20558;-80
2024/01/06 21:40:39;;;;;;;19.37;18.00;;;9.20;31.40;;;;;;5001315;28;20450;-80
2024/01/06 21:43:07;;;;;;;22.10;20.30;;;9.20;31.00;;;;;;5018460;28;20427;-80
2024/01/06 21:45:34;;;;;;;20.63;19.03;;;9.20;31.00;;;;;;5018636;28;20443;-80
2024/01/06 21:48:00;;;;;;;22.13;20.43;;;9.30;31.00;;;;;;5028867;28;20420;-79
2024/01/06 21:50:25;;;;;;;20.73;19.03;;;9.30;30.90;;;;;;5034617;28;20210;-81
2024/01/06 21:52:51;;;;;;;21.90;20.27;;;9.20;31.40;;;;;;5035717;28;20223;-81
2024/01/06 21:55:19;;;;;;;18.37;16.97;;;9.30;31.10;;;;;;5033881;28;20206;-81
2024/01/06 21:57:46;;;;;;;20.20;18.60;;;9.30;31.50;;;;;;5006323;28;20440;-80
2024/01/06 22:00:15;;;;;;;20.07;18.57;;;9.40;30.50;;;;;;4985020;28;20519;-80
2024/01/06 22:02:42;;;;;;;21.27;19.57;;;9.40;30.40;;;;;;4999531;28;20421;-81
2024/01/06 22:05:08;;;;;;;19.27;17.77;;;9.40;30.20;;;;;;5002152;28;20455;-80
2024/01/06 22:07:34;;;;;;;19.87;18.37;;;9.40;30.20;;;;;;4983882;28;20495;-80
2024/01/06 22:09:59;;;;;;;20.17;18.50;;;9.40;30.00;;;;;;5000158;28;20241;-81
2024/01/06 22:12:27;;;;;;;18.23;16.93;;;9.40;30.00;;;;;;5009079;28;20440;-81
2024/01/06 22:14:56;;;;;;;18.80;17.20;;;9.40;30.00;;;;;;5021101;28;20213;-81
2024/01/06 22:17:26;;;;;;;18.97;17.57;;;9.40;30.20;;;;;;4994609;28;20792;-80
2024/01/06 22:19:57;;;;;;;19.63;18.13;;;9.40;30.20;;;;;;5000775;28;20891;-81
2024/01/06 22:22:43;;;;;;;18.73;17.33;;;9.30;30.20;;;;;;4999173;28;20444;-80
2024/01/06 22:25:37;;;;;;;20.03;18.53;;;9.30;30.20;;;;;;4980295;28;20810;-80
2024/01/06 22:28:13;;;;;;;19.33;17.83;;;9.30;30.20;;;;;;4982300;28;20444;-81
2024/01/06 22:30:40;;;;;;;18.93;17.43;;;9.30;30.50;;;;;;4998315;28;20452;-81
2024/01/06 22:33:32;;;;;;;22.07;20.37;;;9.30;30.70;;;;;;4992181;28;20432;-82
2024/01/06 22:36:36;;;;;;;20.97;19.17;;;9.30;30.30;;;;;;5004533;28;20575;-81
2024/01/06 22:39:26;;;;;;;19.67;18.30;;;9.30;30.30;;;;;;4992774;28;20511;-81
2024/01/06 22:42:23;;;;;;;20.30;18.70;;;9.30;30.20;;;;;;5009448;28;20425;-80
2024/01/06 22:44:49;;;;;;;22.30;20.47;;;9.20;30.60;;;;;;4982033;28;20965;-79
2024/01/06 22:47:15;;;;;;;21.37;19.67;;;9.20;30.80;;;;;;4990059;28;20447;-80
2024/01/06 22:49:49;;;;;;;21.47;19.87;;;9.20;30.90;;;;;;5012578;28;20214;-81
2024/01/06 22:52:16;;;;;;;21.63;19.90;;;9.20;31.30;;;;;;4993631;28;20534;-81
2024/01/06 22:55:16;;;;;;;21.30;19.60;;;9.20;31.10;;;;;;4959903;28;20458;-82
2024/01/06 22:57:58;;;;;;;23.07;21.17;;;9.20;31.40;;;;;;4954969;28;20427;-81
2024/01/06 23:00:27;;;;;;;20.30;18.73;;;9.20;31.20;;;;;;4962074;28;20457;-82
2024/01/06 23:03:11;;;;;;;18.73;17.30;;;9.30;30.80;;;;;;5008610;28;20186;-81
2024/01/06 23:05:37;;;;;;;19.87;18.37;;;9.20;30.50;;;;;;4992721;28;20451;-80
2024/01/06 23:08:05;;;;;;;19.30;17.73;;;9.20;30.70;;;;;;4991473;28;20428;-79
2024/01/06 23:10:31;;;;;;;21.20;19.40;;;9.20;30.70;;;;;;4981164;28;20578;-80
2024/01/06 23:12:56;;;;;;;17.57;16.37;;;9.20;30.40;;;;;;5007443;28;20493;-80
2024/01/06 23:15:22;;;;;;;18.13;16.73;;;9.20;30.20;;;;;;4988783;28;20212;-80
2024/01/06 23:17:48;;;;;;;18.87;17.37;;;9.10;31.10;;;;;;4993599;28;20434;-79
2024/01/06 23:20:14;;;;;;;20.93;19.30;;;9.10;30.60;;;;;;4992017;28;20457;-80
2024/01/06 23:22:39;;;;;;;18.50;17.10;;;9.10;30.60;;;;;;4991264;28;20189;-79
2024/01/06 23:25:05;;;;;;;17.90;16.50;;;9.20;30.50;;;;;;5015645;28;20196;-79
2024/01/06 23:27:31;;;;;;;19.13;17.70;;;9.10;30.80;;;;;;5018772;28;20181;-80
2024/01/06 23:29:56;;;;;;;20.00;18.40;;;9.10;30.60;;;;;;5017354;28;20463;-79
2024/01/06 23:32:22;;;;;;;18.70;17.33;;;9.20;30.50;;;;;;4999816;28;20197;-79
2024/01/06 23:34:48;;;;;;;19.00;17.60;;;9.10;30.40;;;;;;5016090;28;20698;-80
2024/01/06 23:37:14;;;;;;;19.77;18.27;;;9.10;30.50;;;;;;4997059;28;20429;-80
2024/01/06 23:39:40;;;;;;;19.03;17.63;;;9.00;30.70;;;;;;4984470;28;20269;-80
2024/01/06 23:42:07;;;;;;;18.60;17.07;;;9.00;31.20;;;;;;5002161;28;20480;-79
2024/01/06 23:44:33;;;;;;;20.10;18.60;;;9.00;31.10;;;;;;5020196;28;20186;-81
2024/01/06 23:46:59;;;;;;;20.33;18.83;;;9.00;31.60;;;;;;5026471;28;20433;-81
2024/01/06 23:49:26;;;;;;;18.57;17.07;;;9.00;31.60;;;;;;5025328;28;20293;-80
2024/01/06 23:51:51;;;;;;;20.07;18.50;;;9.00;31.60;;;;;;4999170;28;20201;-79
2024/01/06 23:54:17;;;;;;;19.33;17.93;;;9.00;31.30;;;;;;5014504;28;20467;-79
2024/01/06 23:56:42;;;;;;;20.33;18.77;;;9.10;30.70;;;;;;4996192;28;20564;-79
2024/01/06 23:59:08;;;;;;;19.87;18.47;;;9.00;30.60;;;;;;5015381;28;20197;-80
